aviador You're here:

KBKE Decoded Metar

BAKER in OR, USA
Report Time2017-12-17 07:53:00
UTC Time2017-12-17 07:59:13
Flight Rules vfr VFR
Wind220° at 04 kt
W.Decomp.*RWY 17: 3.3 kt HW 2.2 kt RCW
RWY 26: 2.2 kt HW 3.3 kt LCW
RWY 13: 1.1 kt HW 3.8 kt RCW
W.Rank220° ranks 25
Current wind is below 220° avg. (4.9)
Visibility9999 m
Phenomena:N/A
Clouds:N/A
Expected CloudBase > 1,200 ft AGL from Temp-Dew spread
CeilingNone
Temp-7°C (ISA -15)
Dew Point-10°C (79% RH)
AAT-11.5°C
QNH1024 hPa
Density Alt1,152 ft
Elevation3,360 ft
Report Wrong Elevation
Raw Report
METAR KBKE 170753Z AUTO 22004KT 10SM CLR M07/M10 A3023 RMK AO2
SLP266 T10721100 400391089=

Extra information for KBKE:More info

Metar Taf Metar & Taf Last 4 Metars F.Rules Stats Wind Profile Meteogram Temp Stats Airport Information Weather charts Add Link Nearby VenuesMetar ALERT Operation Metar Decoded Social comments

AIRNAV info for KBKE